Time;durP1;ratioP1;P1;durP2;ratioP2;P2;SDS_P1;SDS_P2;PMS_P1;PMS_P2;Temp;Humidity;BMP_temperature;BMP_pressure;BME280_temperature;BME280_humidity;BME280_pressure;Samples;Min_cycle;Max_cycle;Signal;HPM_P1;HPM_P2
2021/08/16 00:00:52;;;;;;;20.97;12.33;;;;;;;18.21;71.27;99821.55;1784343;80;25731;-65
2021/08/16 00:03:18;;;;;;;17.35;11.48;;;;;;;18.21;71.40;99813.92;1753064;81;29659;-65
2021/08/16 00:05:44;;;;;;;17.00;11.28;;;;;;;18.20;71.37;99810.97;1783975;80;27360;-65
2021/08/16 00:08:11;;;;;;;19.45;11.25;;;;;;;18.18;71.47;99803.71;1723601;81;25787;-65
2021/08/16 00:10:38;;;;;;;18.80;11.73;;;;;;;18.14;71.37;99809.14;1753077;81;25782;-64
2021/08/16 00:13:05;;;;;;;20.23;11.65;;;;;;;18.11;71.43;99802.45;1784142;80;25805;-64
2021/08/16 00:15:32;;;;;;;18.73;12.07;;;;;;;18.05;71.46;99793.59;1753272;81;27457;-65
2021/08/16 00:18:00;;;;;;;16.35;11.53;;;;;;;18.05;71.58;99804.55;1784060;80;25694;-65
2021/08/16 00:20:27;;;;;;;15.40;10.88;;;;;;;18.01;71.59;99801.73;1753090;81;25721;-64
2021/08/16 00:22:54;;;;;;;19.67;10.98;;;;;;;17.98;71.58;99804.43;1784313;80;25751;-64
2021/08/16 00:25:21;;;;;;;17.15;10.50;;;;;;;17.96;71.54;99801.28;1753081;81;25780;-64
2021/08/16 00:27:47;;;;;;;17.25;13.25;;;;;;;17.92;71.61;99797.91;1783977;80;27431;-64
2021/08/16 00:30:14;;;;;;;20.75;12.07;;;;;;;17.91;71.87;99789.52;1753036;81;25808;-64
2021/08/16 00:32:41;;;;;;;17.77;10.80;;;;;;;17.91;71.81;99799.65;1784265;80;25720;-65
2021/08/16 00:35:08;;;;;;;18.05;10.20;;;;;;;17.89;71.76;99788.29;1753025;81;25653;-65
2021/08/16 00:37:34;;;;;;;19.73;10.85;;;;;;;17.87;71.80;99788.66;1783657;80;25750;-64
2021/08/16 00:40:01;;;;;;;17.70;11.35;;;;;;;17.86;71.93;99789.84;1752731;81;27498;-64
2021/08/16 00:42:27;;;;;;;17.40;11.05;;;;;;;17.86;72.01;99788.47;1784185;80;25867;-64
2021/08/16 00:44:53;;;;;;;14.13;10.08;;;;;;;17.85;72.08;99791.54;1753337;81;25628;-64
2021/08/16 00:47:21;;;;;;;15.98;10.80;;;;;;;17.84;72.16;99781.75;1784451;80;26331;-64
2021/08/16 00:49:47;;;;;;;13.88;10.25;;;;;;;17.81;72.11;99776.45;1753271;81;26069;-64
2021/08/16 00:52:14;;;;;;;18.25;11.03;;;;;;;17.79;72.15;99774.64;1784414;80;27513;-64
2021/08/16 00:54:41;;;;;;;17.60;9.50;;;;;;;17.77;72.19;99769.34;1753250;81;25705;-64
2021/08/16 00:57:08;;;;;;;18.15;10.40;;;;;;;17.74;72.20;99763.47;1784362;80;26087;-64
2021/08/16 00:59:34;;;;;;;18.35;10.20;;;;;;;17.72;72.35;99760.32;1723737;81;25856;-65
2021/08/16 01:02:01;;;;;;;16.35;9.73;;;;;;;17.70;72.37;99762.61;1784527;80;25667;-65
2021/08/16 01:04:31;;;;;;;14.95;10.45;;;;;;;17.69;72.36;99757.51;1753296;81;27309;-64
2021/08/16 01:06:57;;;;;;;14.85;11.00;;;;;;;17.66;72.43;99763.16;1784373;80;25653;-65
2021/08/16 01:09:23;;;;;;;16.65;9.55;;;;;;;17.63;72.56;99767.20;1753350;81;25657;-66
2021/08/16 01:11:51;;;;;;;17.62;10.40;;;;;;;17.59;72.55;99769.09;1753672;80;25870;-66
2021/08/16 01:14:19;;;;;;;15.18;11.15;;;;;;;17.55;72.64;99771.22;1753375;81;25740;-64
2021/08/16 01:16:49;;;;;;;13.32;10.05;;;;;;;17.52;72.75;99762.94;1784465;80;27698;-64
2021/08/16 01:19:22;;;;;;;14.75;10.28;;;;;;;17.50;72.86;99771.53;1752988;81;25734;-64
2021/08/16 01:21:49;;;;;;;18.62;10.03;;;;;;;17.47;72.91;99764.63;1784506;80;25720;-64
2021/08/16 01:24:18;;;;;;;14.33;10.75;;;;;;;17.45;73.05;99766.38;1753304;81;25767;-64
2021/08/16 01:26:44;;;;;;;14.05;9.50;;;;;;;17.44;73.01;99770.27;1784471;80;25746;-64
2021/08/16 01:29:22;;;;;;;16.10;9.95;;;;;;;17.44;73.07;99770.84;1753353;81;28115;-64
2021/08/16 01:31:50;;;;;;;14.07;10.13;;;;;;;17.44;73.17;99768.11;1784359;80;26065;-64
2021/08/16 01:34:17;;;;;;;13.40;9.55;;;;;;;17.45;73.20;99768.30;1724046;81;25789;-64
2021/08/16 01:36:44;;;;;;;14.28;9.40;;;;;;;17.45;73.18;99773.22;1784442;80;25838;-64
2021/08/16 01:39:11;;;;;;;15.63;12.23;;;;;;;17.45;73.21;99756.00;1753293;81;25693;-64
2021/08/16 01:41:38;;;;;;;20.72;12.50;;;;;;;17.47;73.27;99748.22;1784391;80;27483;-64
2021/08/16 01:44:05;;;;;;;14.10;9.88;;;;;;;17.46;73.32;99739.83;1753186;81;25969;-64
2021/08/16 01:46:31;;;;;;;17.45;9.50;;;;;;;17.47;73.22;99749.58;1784375;80;25743;-64
2021/08/16 01:48:57;;;;;;;15.93;9.25;;;;;;;17.47;73.36;99740.83;1723509;81;26427;-64
2021/08/16 01:51:24;;;;;;;14.87;9.10;;;;;;;17.47;73.43;99729.89;1784441;80;25708;-64
2021/08/16 01:53:50;;;;;;;13.90;9.25;;;;;;;17.46;73.31;99728.89;1753408;81;27550;-64
2021/08/16 01:56:19;;;;;;;14.98;9.58;;;;;;;17.48;73.49;99733.40;1784276;80;25772;-64
2021/08/16 01:58:46;;;;;;;;;;;;;;;17.49;73.47;99737.14;1755978;81;25792;-64
2021/08/16 02:01:12;;;;;;;14.70;9.60;;;;;;;17.51;73.70;99737.55;1784368;80;25728;-64
2021/08/16 02:03:38;;;;;;;11.63;8.28;;;;;;;17.52;73.61;99736.96;1753156;81;25811;-64
2021/08/16 02:06:05;;;;;;;15.28;8.48;;;;;;;17.51;73.53;99736.77;1784542;80;27798;-64
2021/08/16 02:08:31;;;;;;;12.95;8.70;;;;;;;17.52;73.41;99727.39;1753415;81;25692;-64
2021/08/16 02:10:57;;;;;;;18.10;8.65;;;;;;;17.53;73.44;99726.25;1784601;80;26366;-65
2021/08/16 02:13:24;;;;;;;11.33;8.43;;;;;;;17.53;73.50;99720.19;1753517;81;25763;-66
2021/08/16 02:15:51;;;;;;;13.90;8.48;;;;;;;17.54;73.48;99722.37;1753743;80;25809;-65
2021/08/16 02:18:17;;;;;;;14.63;8.58;;;;;;;17.55;73.61;99723.37;1753622;81;27419;-66
2021/08/16 02:20:44;;;;;;;11.05;9.48;;;;;;;17.57;73.49;99729.03;1784489;80;25688;-63
2021/08/16 02:23:10;;;;;;;13.43;8.95;;;;;;;17.59;73.54;99725.34;1753443;81;25707;-63
2021/08/16 02:25:37;;;;;;;11.12;8.48;;;;;;;17.59;73.67;99711.11;1784385;80;25780;-63
2021/08/16 02:28:04;;;;;;;11.83;8.73;;;;;;;17.61;74.01;99716.98;1753556;81;25643;-63
2021/08/16 02:30:30;;;;;;;16.23;8.68;;;;;;;17.63;73.89;99713.88;1784508;80;27512;-64
2021/08/16 02:32:56;;;;;;;11.40;8.03;;;;;;;17.68;74.31;99716.30;1753353;81;25754;-64
2021/08/16 02:35:23;;;;;;;11.73;8.20;;;;;;;17.68;73.98;99713.56;1784519;80;25778;-64
2021/08/16 02:37:49;;;;;;;10.85;8.70;;;;;;;17.67;73.82;99710.05;1753414;81;25766;-64
2021/08/16 02:40:16;;;;;;;13.48;8.75;;;;;;;17.67;73.78;99703.77;1784522;80;25663;-64
2021/08/16 02:42:42;;;;;;;11.18;7.80;;;;;;;17.66;73.70;99695.38;1753473;81;27507;-64
2021/08/16 02:45:11;;;;;;;13.62;7.78;;;;;;;17.66;73.69;99695.38;1784401;80;25724;-64
2021/08/16 02:47:39;;;;;;;13.30;7.78;;;;;;;17.62;73.60;99699.44;1753543;81;25798;-64
2021/08/16 02:50:06;;;;;;;14.05;8.38;;;;;;;17.64;73.61;99703.14;1784501;80;25736;-64
2021/08/16 02:52:32;;;;;;;15.55;8.88;;;;;;;17.63;73.77;99700.99;1724222;81;25752;-64
2021/08/16 02:54:59;;;;;;;10.65;7.30;;;;;;;17.60;73.55;99703.09;1784540;80;27406;-64
2021/08/16 02:57:26;;;;;;;13.43;8.23;;;;;;;17.61;73.66;99697.84;1753300;81;25826;-64
2021/08/16 02:59:52;;;;;;;12.18;7.85;;;;;;;17.62;73.69;99695.89;1753994;80;25737;-64
2021/08/16 03:02:18;;;;;;;10.13;8.33;;;;;;;17.60;73.72;99694.89;1753481;81;26265;-64
2021/08/16 03:04:45;;;;;;;10.75;7.75;;;;;;;17.61;73.74;99691.01;1753436;81;25667;-64
2021/08/16 03:07:11;;;;;;;10.93;7.67;;;;;;;17.61;73.80;99686.91;1753526;81;27288;-64
2021/08/16 03:09:37;;;;;;;11.28;7.92;;;;;;;17.62;73.90;99682.22;1753420;81;25836;-64
2021/08/16 03:12:05;;;;;;;14.07;7.95;;;;;;;17.64;73.94;99673.05;1753382;81;25723;-64
2021/08/16 03:14:32;;;;;;;13.45;7.97;;;;;;;17.65;74.03;99675.42;1753389;81;25746;-64
2021/08/16 03:16:58;;;;;;;11.43;8.30;;;;;;;17.65;73.92;99674.05;1753495;81;25738;-64
2021/08/16 03:19:24;;;;;;;13.22;8.60;;;;;;;17.66;73.99;99672.91;1753304;81;28234;-64
2021/08/16 03:21:50;;;;;;;10.30;7.45;;;;;;;17.67;73.96;99674.50;1753429;81;26080;-65
2021/08/16 03:24:17;;;;;;;12.63;8.33;;;;;;;17.66;74.06;99682.48;1753357;81;25676;-64
2021/08/16 03:26:43;;;;;;;14.90;7.78;;;;;;;17.68;74.18;99688.36;1753473;81;25777;-64
2021/08/16 03:29:10;;;;;;;10.55;8.68;;;;;;;17.67;74.00;99681.89;1723855;81;25693;-64
2021/08/16 03:31:37;;;;;;;10.23;8.80;;;;;;;17.68;74.14;99687.58;1753439;81;28440;-64
2021/08/16 03:34:04;;;;;;;12.60;8.65;;;;;;;17.68;74.17;99688.36;1753331;81;25905;-65
2021/08/16 03:36:31;;;;;;;9.98;7.45;;;;;;;17.68;74.22;99688.95;1753477;81;25692;-64
2021/08/16 03:38:57;;;;;;;12.30;7.75;;;;;;;17.67;73.92;99688.17;1753463;81;25766;-64
2021/08/16 03:41:23;;;;;;;9.90;7.55;;;;;;;17.66;74.09;99677.02;1753439;81;25631;-64
2021/08/16 03:43:50;;;;;;;10.40;7.10;;;;;;;17.67;74.05;99678.59;1753444;81;27494;-64
2021/08/16 03:46:16;;;;;;;14.78;8.05;;;;;;;17.69;74.11;99679.56;1753377;81;25778;-64
2021/08/16 03:48:43;;;;;;;12.33;7.53;;;;;;;17.70;74.09;99672.95;1753432;81;26035;-65
2021/08/16 03:51:09;;;;;;;10.40;8.15;;;;;;;17.69;73.93;99671.36;1753470;81;25691;-64
2021/08/16 03:53:36;;;;;;;11.53;7.45;;;;;;;17.72;74.12;99670.63;1753421;81;25684;-64
2021/08/16 03:56:03;;;;;;;15.83;7.40;;;;;;;17.74;74.21;99665.56;1753409;81;27443;-64
2021/08/16 03:58:29;;;;;;;11.63;7.22;;;;;;;17.77;74.17;99670.88;1753355;81;25664;-64
2021/08/16 04:00:56;;;;;;;11.45;7.60;;;;;;;17.79;73.94;99668.55;1723810;81;25742;-64
2021/08/16 04:03:22;;;;;;;9.88;7.65;;;;;;;17.80;73.89;99662.72;1753400;81;26115;-64
2021/08/16 04:05:49;;;;;;;11.35;7.53;;;;;;;17.83;74.04;99667.45;1753399;81;25647;-64
2021/08/16 04:08:15;;;;;;;10.70;7.50;;;;;;;17.84;73.77;99663.56;1753383;81;27458;-64
2021/08/16 04:10:42;;;;;;;10.23;7.40;;;;;;;17.83;73.68;99656.50;1753341;81;25742;-64
2021/08/16 04:13:09;;;;;;;9.63;7.17;;;;;;;17.84;73.73;99649.08;1753508;81;25692;-64
2021/08/16 04:15:36;;;;;;;11.43;7.78;;;;;;;17.86;73.82;99650.85;1753351;81;26243;-65
2021/08/16 04:18:02;;;;;;;13.05;7.33;;;;;;;17.88;73.99;99649.36;1753346;81;26027;-64
2021/08/16 04:20:28;;;;;;;10.03;7.10;;;;;;;17.91;74.03;99647.81;1753150;81;27792;-64
2021/08/16 04:22:54;;;;;;;13.45;7.83;;;;;;;17.94;74.08;99656.64;1753309;81;25781;-65
2021/08/16 04:25:21;;;;;;;11.22;7.45;;;;;;;17.96;74.15;99656.27;1753358;81;25728;-65
2021/08/16 04:27:49;;;;;;;9.40;7.08;;;;;;;17.96;73.88;99650.80;1753366;81;26433;-65
2021/08/16 04:30:16;;;;;;;11.93;8.78;;;;;;;17.99;73.92;99650.05;1753465;81;25667;-65
2021/08/16 04:32:43;;;;;;;11.43;8.33;;;;;;;18.00;73.83;99645.58;1753488;81;28233;-63
2021/08/16 04:35:10;;;;;;;10.82;7.97;;;;;;;18.02;73.82;99645.21;1753333;81;26436;-63
2021/08/16 04:37:38;;;;;;;13.68;8.28;;;;;;;18.04;73.92;99644.25;1753183;81;25643;-63
2021/08/16 04:40:08;;;;;;;10.90;7.22;;;;;;;18.06;73.90;99644.06;1753343;81;25832;-63
2021/08/16 04:42:35;;;;;;;11.70;7.78;;;;;;;18.09;73.98;99642.54;1753498;81;25652;-64
2021/08/16 04:45:03;;;;;;;13.40;7.75;;;;;;;18.10;73.89;99645.50;1753330;81;28163;-64
2021/08/16 04:47:30;;;;;;;11.85;7.30;;;;;;;18.11;73.80;99658.00;1753377;81;25712;-64
2021/08/16 04:49:57;;;;;;;11.57;7.17;;;;;;;18.10;73.62;99653.11;1753387;81;25787;-64
2021/08/16 04:52:25;;;;;;;12.65;8.78;;;;;;;18.12;73.97;99650.00;1753355;81;25746;-64
2021/08/16 04:54:52;;;;;;;8.95;7.60;;;;;;;18.14;73.88;99651.00;1753393;81;25778;-64
2021/08/16 04:57:34;;;;;;;11.43;7.83;;;;;;;18.16;73.91;99654.14;1753470;81;28199;-64
2021/08/16 05:00:03;;;;;;;14.25;9.60;;;;;;;18.17;73.78;99653.77;1753305;81;25704;-65
2021/08/16 05:02:29;;;;;;;9.28;7.67;;;;;;;18.19;73.88;99658.28;1753311;81;25666;-64
2021/08/16 05:04:58;;;;;;;11.97;7.60;;;;;;;18.21;73.77;99662.02;1753333;81;25814;-64
2021/08/16 05:07:24;;;;;;;12.33;8.25;;;;;;;18.23;74.03;99667.89;1753216;81;25763;-64
2021/08/16 05:09:52;;;;;;;14.83;8.50;;;;;;;18.26;73.96;99660.30;1753343;81;27732;-63
2021/08/16 05:12:19;;;;;;;15.55;7.97;;;;;;;18.28;73.87;99666.19;1753217;81;25794;-64
2021/08/16 05:14:45;;;;;;;12.25;8.55;;;;;;;18.31;73.99;99673.65;1753391;81;25805;-64
2021/08/16 05:17:12;;;;;;;12.18;8.20;;;;;;;18.33;74.03;99676.79;1753474;81;25722;-64
2021/08/16 05:19:39;;;;;;;10.35;8.25;;;;;;;18.34;74.00;99694.80;1753285;81;25766;-65
2021/08/16 05:22:08;;;;;;;12.28;8.90;;;;;;;18.34;74.00;99689.33;1723886;81;27513;-64
2021/08/16 05:24:36;;;;;;;15.38;9.20;;;;;;;18.36;74.05;99680.16;1753461;81;25963;-64
2021/08/16 05:27:04;;;;;;;18.62;9.20;;;;;;;18.40;74.11;99686.44;1753264;81;25714;-64
2021/08/16 05:29:31;;;;;;;12.23;7.97;;;;;;;18.41;74.09;99679.81;1753314;81;25842;-64
2021/08/16 05:31:58;;;;;;;16.82;8.75;;;;;;;18.44;74.18;99683.75;1723830;81;25757;-64
2021/08/16 05:34:25;;;;;;;13.10;8.33;;;;;;;18.45;74.33;99679.84;1753317;81;28300;-64
2021/08/16 05:36:51;;;;;;;16.65;8.85;;;;;;;18.47;74.35;99683.79;1753265;81;25782;-64
2021/08/16 05:39:18;;;;;;;15.38;9.73;;;;;;;18.51;74.67;99682.45;1753421;81;25779;-64
2021/08/16 05:41:44;;;;;;;13.25;10.65;;;;;;;18.57;74.68;99682.29;1753304;81;25774;-64
2021/08/16 05:44:10;;;;;;;12.05;9.40;;;;;;;18.61;74.71;99674.10;1784571;80;25675;-64
2021/08/16 05:46:37;;;;;;;11.55;9.50;;;;;;;18.67;74.63;99680.22;1753417;81;27489;-64
2021/08/16 05:49:05;;;;;;;17.98;10.40;;;;;;;18.75;74.69;99673.45;1784445;80;26412;-64
2021/08/16 05:51:31;;;;;;;18.25;10.43;;;;;;;18.80;75.01;99669.00;1748351;80;25743;-64
2021/08/16 05:53:57;;;;;;;16.52;10.75;;;;;;;18.83;74.96;99651.24;1723510;83;26209;-63
2021/08/16 05:56:23;;;;;;;15.55;11.30;;;;;;;18.92;75.24;99655.61;1753519;81;25775;-64
2021/08/16 05:58:50;;;;;;;15.15;10.63;;;;;;;18.99;75.42;99644.69;1753486;81;27518;-63
2021/08/16 06:01:16;;;;;;;15.15;11.60;;;;;;;19.06;75.52;99646.09;1693172;83;25769;-64
2021/08/16 06:03:42;;;;;;;13.80;11.88;;;;;;;19.13;75.62;99639.28;1753503;81;25689;-63
2021/08/16 06:06:09;;;;;;;15.28;12.03;;;;;;;19.21;75.81;99634.64;1721884;83;25821;-64
2021/08/16 06:08:35;;;;;;;14.60;11.68;;;;;;;19.30;75.84;99632.92;1753584;81;25736;-63
2021/08/16 06:11:03;;;;;;;17.02;11.73;;;;;;;19.40;75.87;99634.93;1693349;83;27564;-63
2021/08/16 06:13:30;;;;;;;17.55;12.25;;;;;;;19.50;75.95;99638.30;1752771;81;25704;-63
2021/08/16 06:15:58;;;;;;;19.73;13.62;;;;;;;19.59;75.82;99635.20;1753401;81;26399;-63
2021/08/16 06:18:25;;;;;;;15.72;13.32;;;;;;;19.71;75.79;99629.95;1723529;83;25621;-64
2021/08/16 06:20:54;;;;;;;21.12;15.98;;;;;;;19.82;75.84;99630.81;1753540;81;25721;-64
2021/08/16 06:23:20;;;;;;;18.50;13.85;;;;;;;19.98;75.92;99633.80;1723419;83;28138;-64
2021/08/16 06:25:49;;;;;;;17.80;12.75;;;;;;;20.13;75.88;99625.78;1753333;81;25775;-64
2021/08/16 06:28:15;;;;;;;15.48;12.80;;;;;;;20.23;75.61;99618.14;1723560;83;25799;-64
2021/08/16 06:30:42;;;;;;;22.77;12.58;;;;;;;20.37;75.41;99624.23;1753325;81;25717;-64
2021/08/16 06:33:09;;;;;;;24.87;14.38;;;;;;;20.46;75.27;99614.22;1723466;83;25817;-64
2021/08/16 06:35:36;;;;;;;15.43;12.68;;;;;;;20.60;75.50;99613.43;1753502;81;27398;-64
2021/08/16 06:38:09;;;;;;;19.00;12.93;;;;;;;20.73;75.16;99600.89;1723314;83;26362;-63
2021/08/16 06:40:32;;;;;;;16.67;12.63;;;;;;;20.88;75.17;99594.79;1729536;81;29958;-63
2021/08/16 06:43:00;;;;;;;18.75;12.78;;;;;;;21.06;75.04;99593.36;1728877;83;26201;-64
2021/08/16 06:45:26;;;;;;;15.45;11.78;;;;;;;21.17;74.51;99594.72;1729147;82;25679;-64
2021/08/16 06:47:52;;;;;;;20.02;13.28;;;;;;;21.27;74.37;99593.30;1751823;81;27678;-63
2021/08/16 06:50:19;;;;;;;17.65;13.25;;;;;;;21.40;74.46;99601.91;1729015;82;25720;-62
2021/08/16 06:52:46;;;;;;;18.57;12.93;;;;;;;21.54;74.10;99586.52;1751761;81;25754;-63
2021/08/16 06:55:12;;;;;;;17.50;13.10;;;;;;;21.60;73.59;99589.83;1698556;82;25721;-64
2021/08/16 06:57:39;;;;;;;18.32;13.62;;;;;;;21.69;73.52;99585.86;1751896;81;25725;-64
2021/08/16 07:00:08;;;;;;;15.88;13.70;;;;;;;21.81;73.68;99587.57;1729123;82;27663;-64
2021/08/16 07:02:34;;;;;;;14.40;12.88;;;;;;;21.93;73.03;99584.14;1747283;81;25848;-64
2021/08/16 07:05:01;;;;;;;15.93;12.82;;;;;;;22.01;73.00;99591.17;1729180;82;25723;-64
2021/08/16 07:07:27;;;;;;;18.07;12.43;;;;;;;22.09;72.47;99598.20;1751755;81;25775;-64
2021/08/16 07:09:54;;;;;;;15.03;11.90;;;;;;;22.13;71.98;99601.70;1729223;82;25980;-64
2021/08/16 07:12:20;;;;;;;13.60;12.03;;;;;;;22.16;71.62;99592.63;1751806;81;27493;-64
2021/08/16 07:14:47;;;;;;;17.07;13.00;;;;;;;22.18;71.48;99588.09;1729020;82;25694;-64
2021/08/16 07:17:14;;;;;;;16.05;12.10;;;;;;;22.24;71.75;99586.48;1751880;81;25740;-64
2021/08/16 07:19:40;;;;;;;15.03;12.15;;;;;;;22.56;72.37;99581.34;1729160;82;25788;-65
2021/08/16 07:22:07;;;;;;;14.98;11.57;;;;;;;22.95;71.71;99587.03;1751842;81;25700;-65
2021/08/16 07:24:33;;;;;;;15.05;11.68;;;;;;;23.25;70.78;99582.19;1729116;82;27500;-65
2021/08/16 07:26:59;;;;;;;14.55;11.53;;;;;;;23.55;70.19;99577.09;1751646;81;25738;-65
2021/08/16 07:29:26;;;;;;;14.58;11.12;;;;;;;23.88;69.72;99581.61;1729158;82;25838;-65
2021/08/16 07:31:52;;;;;;;11.95;10.75;;;;;;;24.28;70.08;99583.15;1751802;81;25693;-65
2021/08/16 07:34:19;;;;;;;17.87;10.13;;;;;;;24.66;68.31;99585.10;1729110;82;25661;-64
2021/08/16 07:36:46;;;;;;;11.63;10.43;;;;;;;24.96;66.41;99590.27;1751922;81;27900;-65
2021/08/16 07:39:14;;;;;;;13.25;9.35;;;;;;;25.14;65.90;99579.64;1729086;82;25992;-65
2021/08/16 07:41:40;;;;;;;10.43;9.13;;;;;;;25.48;65.41;99568.13;1751851;81;25676;-65
2021/08/16 07:44:06;;;;;;;10.23;9.03;;;;;;;25.81;63.89;99557.90;1729172;82;25737;-66
2021/08/16 07:46:33;;;;;;;16.90;8.93;;;;;;;26.15;63.12;99557.31;1722177;81;25784;-66
2021/08/16 07:48:59;;;;;;;10.28;7.65;;;;;;;26.47;61.79;99560.05;1729094;82;27417;-65
2021/08/16 07:51:26;;;;;;;8.95;8.05;;;;;;;26.67;59.88;99552.26;1751808;81;26525;-65
2021/08/16 07:53:53;;;;;;;12.68;8.23;;;;;;;26.79;59.72;99552.14;1729200;82;25354;-65
2021/08/16 07:56:20;;;;;;;8.10;7.15;;;;;;;26.98;58.51;99548.42;1751821;81;25700;-66
2021/08/16 07:58:48;;;;;;;8.00;7.17;;;;;;;27.16;58.20;99535.43;1729260;82;26389;-64
2021/08/16 08:01:17;;;;;;;11.12;7.87;;;;;;;27.31;57.55;99536.41;1751819;81;28212;-64
2021/08/16 08:03:44;;;;;;;10.38;7.35;;;;;;;27.40;57.22;99529.61;1729197;82;25652;-64
2021/08/16 08:06:10;;;;;;;7.28;6.58;;;;;;;27.64;57.54;99520.96;1751875;81;25724;-65
2021/08/16 08:08:37;;;;;;;7.33;6.62;;;;;;;28.00;57.10;99519.22;1729134;82;25634;-66
2021/08/16 08:11:03;;;;;;;10.32;6.95;;;;;;;28.34;56.50;99521.09;1722444;81;25736;-65
2021/08/16 08:13:30;;;;;;;9.23;6.37;;;;;;;28.60;55.46;99517.00;1698389;82;27581;-65
2021/08/16 08:15:56;;;;;;;9.10;7.00;;;;;;;28.73;53.14;99523.14;1751835;81;25724;-65
2021/08/16 08:18:23;;;;;;;10.53;6.72;;;;;;;28.64;52.94;99523.23;1729098;82;26006;-65
2021/08/16 08:20:49;;;;;;;10.13;6.80;;;;;;;28.76;52.94;99537.52;1751832;81;25720;-65
2021/08/16 08:23:15;;;;;;;9.43;6.75;;;;;;;28.78;52.20;99534.46;1729220;82;25689;-65
2021/08/16 08:25:43;;;;;;;9.28;6.80;;;;;;;29.01;52.57;99540.20;1751880;81;28396;-64
2021/08/16 08:28:15;;;;;;;7.53;6.78;;;;;;;29.24;52.20;99537.56;1729103;82;25856;-66
2021/08/16 08:30:44;;;;;;;7.80;6.25;;;;;;;29.44;51.13;99553.15;1751962;81;25693;-65
2021/08/16 08:33:15;;;;;;;;;;;;;;;29.62;51.60;99558.78;1731744;82;26312;-65
2021/08/16 08:35:39;;;;;;;10.63;5.78;;;;;;;29.99;50.01;99565.15;1750930;81;25689;-65
2021/08/16 08:38:05;;;;;;;8.28;6.05;;;;;;;30.09;49.76;99549.99;1729266;82;27528;-65
2021/08/16 08:40:32;;;;;;;7.50;5.10;;;;;;;30.39;50.18;99553.78;1696478;83;25824;-65
2021/08/16 08:42:58;;;;;;;6.87;5.70;;;;;;;30.82;49.13;99568.06;1729221;82;25704;-65
2021/08/16 08:45:28;;;;;;;6.05;5.55;;;;;;;30.88;47.07;99576.58;1729136;82;25671;-65
2021/08/16 08:47:55;;;;;;;6.03;5.08;;;;;;;30.89;45.76;99561.39;1729285;82;25702;-63
2021/08/16 08:50:23;;;;;;;5.30;4.80;;;;;;;30.72;44.91;99567.91;1729205;82;27626;-65
2021/08/16 08:52:51;;;;;;;11.30;6.30;;;;;;;30.60;44.65;99571.61;1729079;82;25852;-65
2021/08/16 08:55:17;;;;;;;7.85;5.17;;;;;;;30.63;44.57;99577.66;1729339;82;26346;-66
2021/08/16 08:57:44;;;;;;;5.92;5.33;;;;;;;30.47;43.10;99594.09;1729271;82;25741;-65
2021/08/16 09:00:16;;;;;;;8.10;4.92;;;;;;;30.21;43.98;99605.48;1729308;82;25819;-66
2021/08/16 09:02:40;;;;;;;6.87;5.17;;;;;;;29.95;44.42;99593.17;1728663;82;27478;-65
2021/08/16 09:05:08;;;;;;;7.22;5.42;;;;;;;29.78;45.51;99601.00;1729225;82;25720;-66
2021/08/16 09:07:37;;;;;;;5.70;5.00;;;;;;;29.75;45.07;99600.48;1729249;82;25655;-66
2021/08/16 09:10:14;;;;;;;5.87;5.25;;;;;;;29.58;45.55;99588.80;1729194;82;26355;-65
2021/08/16 09:12:43;;;;;;;7.08;5.35;;;;;;;29.33;45.56;99597.33;1729304;82;25944;-65
2021/08/16 09:15:22;;;;;;;7.43;5.77;;;;;;;28.92;45.67;99581.87;1729488;82;27538;-64
2021/08/16 09:17:51;;;;;;;6.10;5.20;;;;;;;28.61;47.13;99567.25;1729227;82;25703;-66
2021/08/16 09:20:22;;;;;;;7.22;5.42;;;;;;;28.30;47.40;99560.91;1729378;82;25743;-64
2021/08/16 09:23:05;;;;;;;6.60;5.83;;;;;;;28.06;47.92;99555.55;1729224;82;25673;-65
2021/08/16 09:25:36;;;;;;;7.25;5.15;;;;;;;27.82;48.52;99543.41;1729194;83;25771;-65
2021/08/16 09:28:05;;;;;;;9.40;5.55;;;;;;;27.63;49.41;99545.16;1729215;82;27519;-65
2021/08/16 09:30:39;;;;;;;8.90;5.50;;;;;;;27.53;50.06;99528.22;1729257;82;25768;-65
2021/08/16 09:33:18;;;;;;;6.42;5.78;;;;;;;27.45;50.35;99531.04;1729274;83;25656;-65
2021/08/16 09:35:56;;;;;;;6.20;5.60;;;;;;;27.53;50.80;99535.95;1729322;83;25684;-66
2021/08/16 09:38:42;;;;;;;6.15;5.47;;;;;;;27.44;50.63;99530.89;1729381;82;25938;-65
2021/08/16 09:41:25;;;;;;;6.30;5.67;;;;;;;27.52;51.03;99523.28;1729290;83;27551;-65
2021/08/16 09:44:08;;;;;;;6.55;5.95;;;;;;;27.53;51.02;99524.85;1729262;83;25736;-65
2021/08/16 09:46:35;;;;;;;5.95;5.35;;;;;;;27.41;51.12;99513.72;1729232;82;25712;-63
2021/08/16 09:49:04;;;;;;;7.83;5.45;;;;;;;27.39;51.59;99523.27;1729238;82;25724;-63
2021/08/16 09:51:33;;;;;;;6.20;5.60;;;;;;;27.57;51.62;99518.56;1729397;83;33092;-63
2021/08/16 09:54:02;;;;;;;6.65;5.45;;;;;;;27.71;51.23;99537.40;1729310;83;27502;-63
2021/08/16 09:56:29;;;;;;;7.17;5.83;;;;;;;27.60;51.27;99516.91;1729283;83;25716;-65
2021/08/16 09:58:58;;;;;;;6.87;5.40;;;;;;;27.66;51.65;99523.45;1729220;82;25653;-65
2021/08/16 10:01:27;;;;;;;8.53;5.80;;;;;;;27.80;51.83;99509.70;1729326;83;25593;-64
2021/08/16 10:03:53;;;;;;;9.03;6.10;;;;;;;28.15;50.72;99518.14;1729479;82;25709;-65
2021/08/16 10:06:20;;;;;;;5.70;5.00;;;;;;;28.48;50.07;99520.59;1729256;83;27494;-65
2021/08/16 10:08:56;;;;;;;6.08;5.47;;;;;;;28.53;49.51;99516.46;1729246;82;26510;-66
2021/08/16 10:11:24;;;;;;;5.53;5.03;;;;;;;28.85;50.13;99522.30;1729281;83;25649;-64
2021/08/16 10:13:54;;;;;;;6.83;5.40;;;;;;;29.29;48.42;99520.89;1729201;82;25735;-65
2021/08/16 10:16:25;;;;;;;7.53;5.58;;;;;;;29.68;47.77;99524.15;1729317;82;25707;-64
2021/08/16 10:19:04;;;;;;;7.62;5.10;;;;;;;29.90;45.66;99521.90;1729090;83;27787;-64
2021/08/16 10:21:31;;;;;;;6.67;4.80;;;;;;;30.12;46.23;99505.86;1729193;83;26281;-63
2021/08/16 10:23:58;;;;;;;5.40;4.90;;;;;;;30.36;46.97;99506.69;1698484;82;25856;-64
2021/08/16 10:26:35;;;;;;;8.78;5.22;;;;;;;30.66;47.58;99499.99;1729221;82;26237;-63
2021/08/16 10:29:05;;;;;;;6.55;5.05;;;;;;;31.02;46.04;99495.61;1729535;82;25712;-64
2021/08/16 10:31:42;;;;;;;7.20;4.87;;;;;;;31.35;46.23;99500.49;1729489;82;27476;-63
2021/08/16 10:34:09;;;;;;;6.25;4.95;;;;;;;31.73;45.44;99492.11;1729352;82;25735;-63
2021/08/16 10:36:36;;;;;;;7.62;4.97;;;;;;;32.10;44.90;99496.11;1729378;82;25728;-65
2021/08/16 10:39:04;;;;;;;6.10;4.72;;;;;;;32.23;42.80;99486.81;1698400;82;25793;-66
2021/08/16 10:41:38;;;;;;;5.87;4.58;;;;;;;32.17;42.85;99492.30;1729330;82;26420;-66
2021/08/16 10:44:14;;;;;;;6.05;4.50;;;;;;;32.24;41.92;99497.40;1729049;82;27625;-66
2021/08/16 10:46:41;;;;;;;5.83;4.50;;;;;;;32.06;40.04;99496.89;1728892;82;26558;-66
2021/08/16 10:49:15;;;;;;;10.75;4.95;;;;;;;31.77;40.72;99516.45;1729490;82;25744;-66
2021/08/16 10:51:47;;;;;;;5.78;4.15;;;;;;;31.57;40.54;99497.48;1729478;82;25664;-67
2021/08/16 10:54:32;;;;;;;4.92;4.37;;;;;;;31.51;41.16;99497.33;1729447;82;25688;-67
2021/08/16 10:56:59;;;;;;;5.42;4.42;;;;;;;31.39;40.64;99499.06;1729500;82;28137;-67
2021/08/16 10:59:30;;;;;;;5.28;4.50;;;;;;;31.32;40.66;99504.23;1729447;82;25647;-67
2021/08/16 11:01:58;;;;;;;6.53;4.55;;;;;;;31.04;40.71;99484.75;1729396;82;25713;-68
2021/08/16 11:04:33;;;;;;;6.40;4.70;;;;;;;30.57;41.38;99516.76;1729539;82;25712;-67
2021/08/16 11:07:04;;;;;;;5.03;4.58;;;;;;;30.57;41.38;99516.76;1729510;82;25712;-66
2021/08/16 11:09:35;;;;;;;5.20;4.47;;;;;;;30.13;42.01;99492.05;1698909;82;27548;-66
2021/08/16 11:12:06;;;;;;;8.93;4.35;;;;;;;29.84;42.19;99503.63;1729438;82;25740;-67
2021/08/16 11:14:42;;;;;;;8.18;4.53;;;;;;;29.74;42.75;99484.67;1729203;82;25774;-67
2021/08/16 11:17:10;;;;;;;4.65;4.15;;;;;;;29.75;43.43;99496.62;1729398;82;26107;-66
2021/08/16 11:19:46;;;;;;;5.87;4.40;;;;;;;29.73;43.79;99483.73;1729467;82;25897;-66
2021/08/16 11:22:17;;;;;;;5.58;5.05;;;;;;;29.70;44.07;99481.27;1729392;82;28125;-67
2021/08/16 11:24:46;;;;;;;10.65;5.28;;;;;;;29.68;44.25;99471.20;1729340;82;25756;-66
2021/08/16 11:27:24;;;;;;;;;;;;;;;29.69;44.24;99475.53;1732069;82;25730;-65
2021/08/16 11:30:04;;;;;;;8.05;4.92;;;;;;;29.62;44.14;99458.48;1729655;82;25672;-65